createdAt,value
2023-03-19T00:01:10.030Z,5.73
2023-03-19T00:03:36.426Z,5.93
2023-03-19T00:06:02.956Z,5.94
2023-03-19T00:08:29.555Z,5.98
2023-03-19T00:10:56.071Z,5.92
2023-03-19T00:13:22.505Z,5.83
2023-03-19T00:15:48.950Z,5.81
2023-03-19T00:18:16.089Z,6.05
2023-03-19T00:20:43.365Z,5.97
2023-03-19T00:23:09.795Z,5.96
2023-03-19T00:26:12.592Z,6.09
2023-03-19T00:28:39.052Z,6.04
2023-03-19T00:31:13.757Z,6.05
2023-03-19T00:33:40.429Z,6.01
2023-03-19T00:36:07.972Z,6.09
2023-03-19T00:38:36.045Z,5.96
2023-03-19T00:41:13.259Z,6.08
2023-03-19T00:43:40.026Z,6.09
2023-03-19T00:46:07.154Z,6.16
2023-03-19T00:48:33.764Z,6.16
2023-03-19T00:51:09.249Z,6.31
2023-03-19T00:53:40.311Z,6.02
2023-03-19T00:56:07.662Z,5.99
2023-03-19T00:58:34.891Z,6.08
2023-03-19T01:01:14.541Z,6.14
2023-03-19T01:03:40.967Z,6.08
2023-03-19T01:06:07.590Z,5.97
2023-03-19T01:08:34.061Z,6.03
2023-03-19T01:11:26.781Z,6.13
2023-03-19T01:13:53.584Z,6.12
2023-03-19T01:16:19.986Z,6.12
2023-03-19T01:18:46.508Z,6.03
2023-03-19T01:21:12.993Z,6.15
2023-03-19T01:23:39.741Z,6.05
2023-03-19T01:26:06.583Z,6.04
2023-03-19T01:28:32.953Z,6.09
2023-03-19T01:31:01.820Z,6.23
2023-03-19T01:33:28.284Z,5.93
2023-03-19T01:35:54.912Z,6.19
2023-03-19T01:38:21.378Z,6.03
2023-03-19T01:40:48.547Z,6.39
2023-03-19T01:43:23.473Z,6.22
2023-03-19T01:45:52.993Z,6.07
2023-03-19T01:48:37.033Z,6.08
2023-03-19T01:51:05.968Z,6.00
2023-03-19T01:53:35.232Z,6.06
2023-03-19T01:56:11.445Z,6.00
2023-03-19T01:58:40.178Z,5.82
2023-03-19T02:01:06.573Z,5.87
2023-03-19T02:03:34.076Z,5.83
2023-03-19T02:06:01.025Z,5.73
2023-03-19T02:08:28.801Z,5.69
2023-03-19T02:10:56.687Z,5.81
2023-03-19T02:13:23.257Z,5.86
2023-03-19T02:15:50.986Z,5.87
2023-03-19T02:18:17.729Z,5.79
2023-03-19T02:20:53.854Z,5.89
2023-03-19T02:23:35.906Z,5.94
2023-03-19T02:26:14.898Z,5.62
2023-03-19T02:28:48.432Z,5.76
2023-03-19T02:31:16.009Z,5.94
2023-03-19T02:33:42.607Z,6.25
2023-03-19T02:36:17.890Z,6.67
2023-03-19T02:38:46.476Z,7.22
2023-03-19T02:41:12.866Z,7.53
2023-03-19T02:43:41.290Z,8.02
2023-03-19T02:46:12.034Z,8.01
2023-03-19T02:48:39.369Z,8.30
2023-03-19T02:51:05.997Z,8.27
2023-03-19T02:53:34.652Z,8.47
2023-03-19T02:56:01.575Z,8.60
2023-03-19T02:58:28.028Z,8.64
2023-03-19T03:00:54.520Z,8.66
2023-03-19T03:03:21.264Z,8.72
2023-03-19T03:05:47.685Z,8.75
2023-03-19T03:08:14.088Z,8.85
2023-03-19T03:10:40.550Z,8.92
2023-03-19T03:13:07.111Z,9.02
2023-03-19T03:15:40.800Z,8.92
2023-03-19T03:18:07.193Z,8.79
2023-03-19T03:20:33.822Z,8.86
2023-03-19T03:23:00.917Z,8.77
2023-03-19T03:25:27.325Z,8.82
2023-03-19T03:27:53.708Z,8.87
2023-03-19T03:30:20.356Z,9.00
2023-03-19T03:32:46.845Z,8.75
2023-03-19T03:35:13.428Z,8.95
2023-03-19T03:37:39.836Z,9.03
2023-03-19T03:40:07.992Z,8.79
2023-03-19T03:42:36.729Z,8.75
2023-03-19T03:45:03.589Z,8.79
2023-03-19T03:47:30.056Z,8.81
2023-03-19T03:49:56.738Z,8.95
2023-03-19T03:52:23.860Z,8.86
2023-03-19T03:54:50.532Z,8.84
2023-03-19T03:57:16.896Z,8.78
2023-03-19T03:59:43.561Z,8.91
2023-03-19T04:02:10.022Z,8.78
2023-03-19T04:04:36.444Z,8.98
2023-03-19T04:07:02.872Z,8.85
2023-03-19T04:09:38.704Z,8.91
2023-03-19T04:12:05.456Z,8.81
2023-03-19T04:14:31.851Z,8.85
2023-03-19T04:16:58.293Z,9.10
2023-03-19T04:19:24.748Z,9.15
2023-03-19T04:21:51.172Z,9.23
2023-03-19T04:24:17.576Z,8.98
2023-03-19T04:26:44.253Z,8.93
2023-03-19T04:29:10.657Z,9.05
2023-03-19T04:31:38.143Z,8.92
2023-03-19T04:34:04.588Z,9.05
2023-03-19T04:36:31.208Z,8.83
2023-03-19T04:38:57.567Z,9.19
2023-03-19T04:41:24.095Z,9.01
2023-03-19T04:43:50.478Z,8.86
2023-03-19T04:46:18.884Z,9.08
2023-03-19T04:48:45.446Z,8.89
2023-03-19T04:51:11.956Z,9.07
2023-03-19T04:53:39.879Z,8.88
2023-03-19T04:56:07.911Z,8.91
2023-03-19T04:58:34.486Z,8.72
2023-03-19T05:01:07.011Z,8.76
2023-03-19T05:03:33.736Z,8.64
2023-03-19T05:06:00.442Z,8.53
2023-03-19T05:08:26.824Z,8.55
2023-03-19T05:10:53.240Z,8.53
2023-03-19T05:13:21.615Z,8.47
2023-03-19T05:15:48.447Z,8.41
2023-03-19T05:18:15.336Z,8.37
2023-03-19T05:20:42.584Z,8.31
2023-03-19T05:23:08.931Z,8.29
2023-03-19T05:25:35.358Z,8.16
2023-03-19T05:28:02.820Z,8.43
2023-03-19T05:30:29.789Z,8.36
2023-03-19T05:32:59.936Z,8.22
2023-03-19T05:35:27.661Z,8.21
2023-03-19T05:37:54.123Z,8.22
2023-03-19T05:40:21.028Z,8.11
2023-03-19T05:42:47.852Z,8.06
2023-03-19T05:45:14.692Z,8.50
2023-03-19T05:47:41.144Z,8.20
2023-03-19T05:50:08.357Z,8.22
2023-03-19T05:52:34.723Z,8.22
2023-03-19T05:55:01.477Z,8.12
2023-03-19T05:57:28.768Z,8.09
2023-03-19T05:59:55.164Z,8.06
2023-03-19T06:02:22.014Z,8.55
2023-03-19T06:04:48.449Z,8.41
2023-03-19T06:07:14.830Z,8.25
2023-03-19T06:09:41.347Z,8.26
2023-03-19T06:12:08.369Z,8.48
2023-03-19T06:14:34.808Z,8.54
2023-03-19T06:17:01.175Z,8.60
2023-03-19T06:19:27.769Z,8.37
2023-03-19T06:21:54.157Z,8.39
2023-03-19T06:24:20.658Z,8.37
2023-03-19T06:26:47.096Z,8.41
2023-03-19T06:29:13.556Z,8.28
2023-03-19T06:31:47.167Z,8.35
2023-03-19T06:34:13.655Z,8.44
2023-03-19T06:36:48.334Z,8.42
2023-03-19T06:39:15.297Z,8.52
2023-03-19T06:41:42.036Z,8.58
2023-03-19T06:44:57.381Z,8.61
2023-03-19T06:47:23.831Z,8.40
2023-03-19T06:49:50.388Z,8.62
2023-03-19T06:52:17.334Z,8.79
2023-03-19T06:54:43.797Z,8.97
2023-03-19T06:57:10.313Z,9.08
2023-03-19T06:59:36.815Z,9.01
2023-03-19T07:02:03.405Z,9.20
2023-03-19T07:04:30.410Z,9.10
2023-03-19T07:06:56.881Z,9.33
2023-03-19T07:09:23.507Z,9.32
2023-03-19T07:11:49.969Z,9.27
2023-03-19T07:14:16.408Z,9.44
2023-03-19T07:16:42.836Z,9.27
2023-03-19T07:19:16.475Z,9.73
2023-03-19T07:21:56.206Z,9.53
2023-03-19T07:24:22.647Z,9.58
2023-03-19T07:26:57.312Z,9.32
2023-03-19T07:29:32.809Z,9.55
2023-03-19T07:32:23.349Z,9.79
2023-03-19T07:34:50.851Z,9.59
2023-03-19T07:37:17.638Z,9.85
2023-03-19T07:39:47.128Z,9.67
2023-03-19T07:42:17.676Z,9.53
2023-03-19T07:44:44.096Z,9.73
2023-03-19T07:47:22.522Z,9.83
2023-03-19T07:49:54.594Z,9.95
2023-03-19T07:52:21.253Z,9.88
2023-03-19T07:54:47.781Z,9.74
2023-03-19T07:57:16.465Z,9.88
2023-03-19T07:59:48.029Z,10.11
2023-03-19T08:02:15.010Z,10.31
2023-03-19T08:04:41.936Z,10.10
2023-03-19T08:07:11.076Z,10.21
2023-03-19T08:09:37.594Z,10.34
2023-03-19T08:12:04.547Z,10.48
2023-03-19T08:14:31.036Z,10.42
2023-03-19T08:16:57.472Z,10.37
2023-03-19T08:19:23.966Z,10.56
2023-03-19T08:21:50.402Z,10.56
2023-03-19T08:24:17.595Z,10.56
2023-03-19T08:26:44.308Z,10.73
2023-03-19T08:29:10.919Z,10.27
2023-03-19T08:31:37.371Z,10.53
2023-03-19T08:34:04.715Z,10.87
2023-03-19T08:36:32.018Z,10.94
2023-03-19T08:38:59.008Z,9.77
2023-03-19T08:41:25.669Z,10.82
2023-03-19T08:43:52.226Z,10.80
2023-03-19T08:46:18.969Z,10.79
2023-03-19T08:48:45.549Z,10.95
2023-03-19T08:51:12.189Z,10.92
2023-03-19T08:53:38.911Z,11.12
2023-03-19T08:56:07.653Z,11.04
2023-03-19T08:58:34.205Z,11.12
2023-03-19T09:01:04.853Z,11.22
2023-03-19T09:03:32.079Z,11.34
2023-03-19T09:06:02.623Z,11.54
2023-03-19T09:08:32.685Z,11.93
2023-03-19T09:10:59.169Z,11.70
2023-03-19T09:13:29.293Z,11.77
2023-03-19T09:15:58.067Z,11.86
2023-03-19T09:18:26.539Z,11.82
2023-03-19T09:20:54.270Z,12.17
2023-03-19T09:23:36.919Z,12.31
2023-03-19T09:26:04.553Z,12.24
2023-03-19T09:28:31.142Z,12.44
2023-03-19T09:30:59.579Z,12.61
2023-03-19T09:33:27.952Z,12.81
2023-03-19T09:36:17.164Z,13.06
2023-03-19T09:38:44.581Z,12.73
2023-03-19T09:41:24.236Z,12.75
2023-03-19T09:43:58.087Z,12.74
2023-03-19T09:46:50.278Z,12.56
2023-03-19T09:49:20.903Z,12.75
2023-03-19T09:51:55.153Z,12.35
2023-03-19T09:54:27.684Z,12.63
2023-03-19T09:56:57.001Z,12.73
2023-03-19T09:59:36.002Z,12.87
2023-03-19T10:02:36.351Z,13.05
2023-03-19T10:05:28.838Z,13.28
2023-03-19T10:08:29.589Z,13.12
2023-03-19T10:11:16.354Z,13.00
2023-03-19T10:14:06.561Z,13.54
2023-03-19T10:16:41.773Z,13.80
2023-03-19T10:19:12.390Z,13.41
2023-03-19T10:22:00.740Z,13.58
2023-03-19T10:24:37.053Z,14.08
2023-03-19T10:27:20.812Z,14.11
2023-03-19T10:29:52.306Z,14.27
2023-03-19T10:32:41.294Z,14.26
2023-03-19T10:35:24.306Z,13.94
2023-03-19T10:37:53.829Z,13.49
2023-03-19T10:40:48.763Z,14.13
2023-03-19T10:43:25.706Z,14.70
2023-03-19T10:45:52.608Z,14.42
2023-03-19T10:48:27.663Z,13.90
2023-03-19T10:51:06.150Z,13.80
2023-03-19T10:53:38.609Z,14.05
2023-03-19T10:56:18.993Z,14.21
2023-03-19T10:58:59.237Z,14.19
2023-03-19T11:01:41.360Z,13.90
2023-03-19T11:04:21.616Z,14.23
2023-03-19T11:06:53.967Z,14.29
2023-03-19T11:09:32.802Z,14.49
2023-03-19T11:12:19.153Z,14.39
2023-03-19T11:14:48.896Z,14.54
2023-03-19T11:17:23.889Z,14.60
2023-03-19T11:19:53.481Z,14.98
2023-03-19T11:22:32.175Z,15.19
2023-03-19T11:25:20.473Z,15.06
2023-03-19T11:28:19.071Z,14.83
2023-03-19T11:31:05.937Z,14.51
2023-03-19T11:33:47.492Z,14.88
2023-03-19T11:36:56.920Z,14.59
2023-03-19T11:39:27.417Z,14.81
2023-03-19T11:42:40.737Z,14.99
2023-03-19T11:45:33.688Z,14.78
2023-03-19T11:48:31.527Z,15.00
2023-03-19T11:51:14.757Z,14.85
2023-03-19T11:54:04.231Z,14.78
2023-03-19T11:56:55.585Z,15.06
2023-03-19T11:59:50.139Z,15.21
2023-03-19T12:02:40.913Z,15.25
2023-03-19T12:05:35.495Z,14.74
2023-03-19T12:08:22.389Z,14.98
2023-03-19T12:11:25.364Z,14.68
2023-03-19T12:14:10.264Z,14.83
2023-03-19T12:16:52.465Z,15.10
2023-03-19T12:19:50.944Z,14.98
2023-03-19T12:22:24.050Z,15.11
2023-03-19T12:25:12.344Z,14.71
2023-03-19T12:27:51.896Z,14.97
2023-03-19T12:30:37.207Z,15.17
2023-03-19T12:33:43.497Z,15.55
2023-03-19T12:36:17.352Z,15.42
2023-03-19T12:39:06.329Z,15.50
2023-03-19T12:41:39.603Z,15.52
2023-03-19T12:44:11.566Z,15.66
2023-03-19T12:46:59.177Z,15.70
2023-03-19T12:49:40.403Z,16.08
2023-03-19T12:52:29.168Z,15.43
2023-03-19T12:55:22.979Z,15.88
2023-03-19T12:58:18.589Z,15.63
2023-03-19T13:01:02.130Z,15.67
2023-03-19T13:04:04.094Z,15.53
2023-03-19T13:06:52.321Z,15.29
2023-03-19T13:10:09.384Z,14.97
2023-03-19T13:12:38.591Z,14.69
2023-03-19T13:15:16.608Z,14.88
2023-03-19T13:18:04.609Z,15.33
2023-03-19T13:21:31.729Z,15.10
2023-03-19T13:24:09.880Z,15.46
2023-03-19T13:26:38.001Z,15.24
2023-03-19T13:29:07.649Z,15.47
2023-03-19T13:31:36.261Z,15.21
2023-03-19T13:34:38.010Z,15.55
2023-03-19T13:37:13.659Z,15.24
2023-03-19T13:39:42.092Z,15.23
2023-03-19T13:42:43.628Z,15.25
2023-03-19T13:45:35.949Z,15.29
2023-03-19T13:48:26.988Z,15.13
2023-03-19T13:51:03.219Z,15.07
2023-03-19T13:53:38.642Z,14.67
2023-03-19T13:56:26.289Z,14.78
2023-03-19T13:59:26.915Z,15.15
2023-03-19T14:01:54.437Z,15.25
2023-03-19T14:04:29.164Z,15.22
2023-03-19T14:06:58.148Z,15.26
2023-03-19T14:09:36.394Z,15.10
2023-03-19T14:12:32.423Z,15.14
2023-03-19T14:15:10.361Z,14.93
2023-03-19T14:17:46.981Z,14.99
2023-03-19T14:20:14.296Z,15.00
2023-03-19T14:23:11.469Z,15.00
2023-03-19T14:25:53.519Z,14.86
2023-03-19T14:28:27.133Z,14.86
2023-03-19T14:30:55.928Z,14.68
2023-03-19T14:33:29.414Z,14.78
2023-03-19T14:35:56.715Z,14.82
2023-03-19T14:38:38.541Z,15.07
2023-03-19T14:41:07.639Z,15.10
2023-03-19T14:43:46.109Z,14.96
2023-03-19T14:46:27.704Z,14.84
2023-03-19T14:49:41.984Z,14.78
2023-03-19T14:52:14.410Z,14.74
2023-03-19T14:54:46.744Z,14.78
2023-03-19T14:57:28.409Z,14.80
2023-03-19T14:59:56.231Z,14.84
2023-03-19T15:02:31.503Z,14.96
2023-03-19T15:05:30.674Z,14.95
2023-03-19T15:08:01.691Z,14.90
2023-03-19T15:10:31.073Z,15.19
2023-03-19T15:13:01.445Z,15.22
2023-03-19T15:15:54.872Z,15.02
2023-03-19T15:18:22.920Z,14.88
2023-03-19T15:20:56.282Z,14.85
2023-03-19T15:23:29.010Z,14.87
2023-03-19T15:25:58.369Z,15.02
2023-03-19T15:28:30.621Z,14.77
2023-03-19T15:31:26.385Z,14.85
2023-03-19T15:33:52.777Z,14.67
2023-03-19T15:36:27.332Z,14.59
2023-03-19T15:38:59.693Z,14.45
2023-03-19T15:41:31.944Z,14.02
2023-03-19T15:44:04.501Z,14.08
2023-03-19T15:46:35.894Z,14.18
2023-03-19T15:49:13.821Z,13.97
2023-03-19T15:51:41.385Z,14.13
2023-03-19T15:54:08.893Z,13.94
2023-03-19T15:56:35.442Z,13.84
2023-03-19T15:59:03.522Z,13.75
2023-03-19T16:01:33.085Z,13.67
2023-03-19T16:04:03.685Z,13.59
2023-03-19T16:06:32.533Z,13.33
2023-03-19T16:09:14.087Z,13.30
2023-03-19T16:11:45.555Z,13.30
2023-03-19T16:14:15.156Z,13.15
2023-03-19T16:17:16.961Z,13.21
2023-03-19T16:19:53.716Z,12.71
2023-03-19T16:22:23.789Z,12.85
2023-03-19T16:24:52.182Z,13.06
2023-03-19T16:27:33.445Z,12.92
2023-03-19T16:30:00.567Z,13.09
2023-03-19T16:32:38.387Z,12.91
2023-03-19T16:35:19.746Z,12.82
2023-03-19T16:38:25.782Z,12.83
2023-03-19T16:41:16.780Z,12.66
2023-03-19T16:43:47.483Z,12.60
2023-03-19T16:46:16.540Z,12.61
2023-03-19T16:48:44.330Z,12.54
2023-03-19T16:51:18.463Z,12.44
2023-03-19T16:53:46.079Z,12.23
2023-03-19T16:56:18.777Z,12.25
2023-03-19T16:58:46.004Z,12.34
2023-03-19T17:01:15.941Z,12.37
2023-03-19T17:03:43.091Z,12.05
2023-03-19T17:06:11.962Z,11.43
2023-03-19T17:08:38.753Z,11.75
2023-03-19T17:11:06.120Z,11.49
2023-03-19T17:13:35.333Z,11.28
2023-03-19T17:16:06.815Z,11.31
2023-03-19T17:18:39.987Z,11.03
2023-03-19T17:21:32.400Z,11.03
2023-03-19T17:24:15.240Z,10.91
2023-03-19T17:26:41.745Z,10.84
2023-03-19T17:29:08.107Z,10.93
2023-03-19T17:31:35.186Z,10.92
2023-03-19T17:34:14.120Z,11.02
2023-03-19T17:36:40.625Z,10.82
2023-03-19T17:39:11.685Z,10.66
2023-03-19T17:41:47.262Z,10.47
2023-03-19T17:44:14.618Z,10.52
2023-03-19T17:46:48.422Z,10.57
2023-03-19T17:49:21.454Z,10.20
2023-03-19T17:51:50.813Z,10.02
2023-03-19T17:54:17.858Z,10.01
2023-03-19T17:56:44.258Z,10.17
2023-03-19T17:59:11.111Z,10.16
2023-03-19T18:01:49.928Z,9.97
2023-03-19T18:04:18.776Z,9.64
2023-03-19T18:06:56.541Z,9.35
2023-03-19T18:09:32.787Z,9.52
2023-03-19T18:11:59.233Z,9.49
2023-03-19T18:14:25.677Z,9.45
2023-03-19T18:16:52.271Z,9.26
2023-03-19T18:19:38.057Z,9.06
2023-03-19T18:22:16.743Z,8.95
2023-03-19T18:24:43.224Z,8.54
2023-03-19T18:27:09.642Z,8.49
2023-03-19T18:29:37.142Z,8.51
2023-03-19T18:32:13.362Z,8.40
2023-03-19T18:34:39.769Z,8.35
2023-03-19T18:37:06.418Z,8.64
2023-03-19T18:39:38.042Z,8.23
2023-03-19T18:42:13.581Z,8.25
2023-03-19T18:44:50.725Z,8.12
2023-03-19T18:47:28.545Z,8.25
2023-03-19T18:49:57.644Z,7.92
2023-03-19T18:52:24.377Z,8.09
2023-03-19T18:54:50.875Z,7.98
2023-03-19T18:57:18.299Z,7.79
2023-03-19T18:59:45.409Z,7.92
2023-03-19T19:02:19.519Z,7.90
2023-03-19T19:04:45.977Z,7.60
2023-03-19T19:07:22.664Z,7.73
2023-03-19T19:09:49.244Z,7.50
2023-03-19T19:12:18.462Z,7.60
2023-03-19T19:14:45.639Z,7.63
2023-03-19T19:17:23.968Z,7.65
2023-03-19T19:19:50.616Z,7.40
2023-03-19T19:22:18.820Z,7.38
2023-03-19T19:24:45.279Z,7.43
2023-03-19T19:27:24.607Z,7.50
2023-03-19T19:29:51.256Z,7.61
2023-03-19T19:32:28.582Z,7.53
2023-03-19T19:34:55.053Z,7.55
2023-03-19T19:37:23.349Z,7.42
2023-03-19T19:39:52.102Z,7.54
2023-03-19T19:42:21.118Z,7.47
2023-03-19T19:44:52.031Z,7.30
2023-03-19T19:47:18.761Z,7.42
2023-03-19T20:57:29.108Z,7.60
2023-03-19T20:59:55.725Z,7.79
2023-03-19T21:02:24.420Z,7.64
2023-03-19T21:04:51.791Z,7.50
2023-03-19T21:07:34.517Z,7.69
2023-03-19T21:10:03.519Z,7.70
2023-03-19T21:12:31.689Z,7.49
2023-03-19T21:14:59.514Z,7.55
2023-03-19T21:17:27.541Z,7.84
2023-03-19T21:19:54.806Z,7.58
2023-03-19T21:22:25.751Z,7.37
2023-03-19T21:24:56.213Z,7.62
2023-03-19T21:27:26.396Z,7.62
2023-03-19T21:29:54.407Z,7.67
2023-03-19T21:32:21.313Z,7.35
2023-03-19T21:34:48.952Z,7.60
2023-03-19T21:37:16.480Z,7.47
2023-03-19T21:39:43.417Z,7.33
2023-03-19T21:42:17.424Z,7.43
2023-03-19T21:44:45.996Z,7.53
2023-03-19T21:47:21.340Z,7.70
2023-03-19T21:49:48.480Z,7.72
2023-03-19T21:52:18.408Z,7.67
2023-03-19T21:54:49.065Z,7.53
2023-03-19T21:57:16.592Z,7.59
2023-03-19T21:59:45.112Z,7.49
2023-03-19T22:02:27.792Z,7.67
2023-03-19T22:04:54.240Z,7.54
2023-03-19T22:07:20.677Z,7.17
2023-03-19T22:09:47.041Z,7.46
2023-03-19T22:12:25.880Z,7.46
2023-03-19T22:14:55.454Z,7.32
2023-03-19T22:17:25.957Z,7.49
2023-03-19T22:19:52.331Z,7.58
2023-03-19T22:22:18.745Z,7.60
2023-03-19T22:24:45.104Z,7.11
2023-03-19T22:27:17.237Z,7.54
2023-03-19T22:29:45.733Z,7.46
2023-03-19T22:32:18.840Z,7.46
2023-03-19T22:34:46.540Z,7.37
2023-03-19T22:37:26.088Z,7.43
2023-03-19T22:39:53.232Z,7.42
2023-03-19T22:42:20.395Z,7.02
2023-03-19T22:44:48.913Z,7.52
2023-03-19T22:47:24.625Z,7.46
2023-03-19T22:49:51.291Z,7.18
2023-03-19T22:52:17.845Z,7.31
2023-03-19T22:54:44.283Z,7.45
2023-03-19T22:57:14.863Z,7.46
2023-03-19T22:59:44.493Z,7.12
2023-03-19T23:02:13.961Z,7.24
2023-03-19T23:04:41.282Z,7.05
2023-03-19T23:07:11.711Z,7.42
2023-03-19T23:09:38.840Z,6.93
2023-03-19T23:12:07.378Z,6.70
2023-03-19T23:14:36.589Z,6.90
2023-03-19T23:17:14.233Z,6.95
2023-03-19T23:19:41.048Z,6.92
2023-03-19T23:22:14.716Z,7.02
2023-03-19T23:24:42.221Z,6.84
2023-03-19T23:27:22.870Z,7.05
2023-03-19T23:29:49.663Z,6.59
2023-03-19T23:32:16.429Z,6.72
2023-03-19T23:34:57.155Z,6.40
2023-03-19T23:37:24.437Z,6.59
2023-03-19T23:39:51.030Z,6.59
2023-03-19T23:42:28.783Z,6.69
2023-03-19T23:44:58.308Z,6.57
2023-03-19T23:47:24.965Z,6.58
2023-03-19T23:49:51.631Z,6.45
2023-03-19T23:52:18.053Z,6.47
2023-03-19T23:54:44.422Z,6.20
2023-03-19T23:57:14.604Z,6.54
2023-03-19T23:59:43.859Z,6.40
